<?xml version="1.0" encoding="UTF-8" standalone="no" ?>
<gpx xmlns="http://www.topografix.com/GPX/1/1" xmlns:xsi="http://www.w3.org/2001/XMLSchema-instance" xsi:schemaLocation="http://www.topografix.com/GPX/1/1 http://www.topografix.com/GPX/1/1/gpx.xsd" version="1.1" creator="VisuGPX - https://www.visugpx.com">
  <metadata>
    <name>la Baume Cornillane Mazouyer</name>
    <desc><![CDATA[File with points/tracks from Locus Map/3.21.1]]></desc>
  </metadata>
  <trk>
    <name><![CDATA[F26120 la Baume Cornillane Mazouyer]]></name>
    <trkseg>
      <trkpt lat="44.82363" lon="5.03958">
        <ele>321.48</ele>
        <time>2017-03-03T08:07:51.093Z</time>
      </trkpt>
      <trkpt lat="44.82346" lon="5.03981">
        <ele>325.3</ele>
        <time>2017-03-03T08:08:28.019Z</time>
      </trkpt>
      <trkpt lat="44.82324" lon="5.03972">
        <ele>326.18</ele>
        <time>2017-03-03T08:08:51.038Z</time>
      </trkpt>
      <trkpt lat="44.82329" lon="5.04003">
        <ele>328.49</ele>
        <time>2017-03-03T08:09:55.052Z</time>
      </trkpt>
      <trkpt lat="44.82343" lon="5.0403">
        <ele>330.18</ele>
        <time>2017-03-03T08:10:17.034Z</time>
      </trkpt>
      <trkpt lat="44.82348" lon="5.04061">
        <ele>333.35</ele>
        <time>2017-03-03T08:10:45.032Z</time>
      </trkpt>
      <trkpt lat="44.82359" lon="5.04091">
        <ele>337.35</ele>
        <time>2017-03-03T08:11:22.081Z</time>
      </trkpt>
      <trkpt lat="44.82365" lon="5.04122">
        <ele>343.57</ele>
        <time>2017-03-03T08:11:48.080Z</time>
      </trkpt>
      <trkpt lat="44.82368" lon="5.04154">
        <ele>350.78</ele>
        <time>2017-03-03T08:12:19.090Z</time>
      </trkpt>
      <trkpt lat="44.82359" lon="5.04183">
        <ele>358.41</ele>
        <time>2017-03-03T08:12:57.047Z</time>
      </trkpt>
      <trkpt lat="44.82368" lon="5.04211">
        <ele>365.34</ele>
        <time>2017-03-03T08:14:18.018Z</time>
      </trkpt>
      <trkpt lat="44.82385" lon="5.04236">
        <ele>369.25</ele>
        <time>2017-03-03T08:14:28.012Z</time>
      </trkpt>
      <trkpt lat="44.82389" lon="5.04271">
        <ele>375.94</ele>
        <time>2017-03-03T08:15:29.035Z</time>
      </trkpt>
      <trkpt lat="44.82395" lon="5.04302">
        <ele>381.25</ele>
        <time>2017-03-03T08:15:51.013Z</time>
      </trkpt>
      <trkpt lat="44.82384" lon="5.0433">
        <ele>385.92</ele>
        <time>2017-03-03T08:16:23.038Z</time>
      </trkpt>
      <trkpt lat="44.82367" lon="5.04353">
        <ele>387.24</ele>
        <time>2017-03-03T08:16:44.018Z</time>
      </trkpt>
      <trkpt lat="44.82345" lon="5.04343">
        <ele>388.1</ele>
        <time>2017-03-03T08:18:55.097Z</time>
      </trkpt>
      <trkpt lat="44.82327" lon="5.04324">
        <ele>387.42</ele>
        <time>2017-03-03T08:19:37.087Z</time>
      </trkpt>
      <trkpt lat="44.82342" lon="5.04347">
        <ele>387.96</ele>
        <time>2017-03-03T08:23:01.086Z</time>
      </trkpt>
      <trkpt lat="44.82348" lon="5.04379">
        <ele>385.04</ele>
        <time>2017-03-03T08:23:35.034Z</time>
      </trkpt>
      <trkpt lat="44.82371" lon="5.04384">
        <ele>384.72</ele>
        <time>2017-03-03T08:24:58.064Z</time>
      </trkpt>
      <trkpt lat="44.82392" lon="5.0437">
        <ele>385.64</ele>
        <time>2017-03-03T08:25:36.028Z</time>
      </trkpt>
      <trkpt lat="44.82415" lon="5.04362">
        <ele>385.43</ele>
        <time>2017-03-03T08:25:49.151Z</time>
      </trkpt>
      <trkpt lat="44.82437" lon="5.04355">
        <ele>384.99</ele>
        <time>2017-03-03T08:26:29.195Z</time>
      </trkpt>
      <trkpt lat="44.8246" lon="5.0435">
        <ele>384.33</ele>
        <time>2017-03-03T08:26:49.032Z</time>
      </trkpt>
      <trkpt lat="44.82475" lon="5.04374">
        <ele>386.37</ele>
        <time>2017-03-03T08:27:10.030Z</time>
      </trkpt>
      <trkpt lat="44.82499" lon="5.0438">
        <ele>387.64</ele>
        <time>2017-03-03T08:29:42.099Z</time>
      </trkpt>
      <trkpt lat="44.82518" lon="5.04399">
        <ele>389.94</ele>
        <time>2017-03-03T08:29:57.056Z</time>
      </trkpt>
      <trkpt lat="44.82536" lon="5.0442">
        <ele>392.12</ele>
        <time>2017-03-03T08:30:13.035Z</time>
      </trkpt>
      <trkpt lat="44.82545" lon="5.04449">
        <ele>392.12</ele>
        <time>2017-03-03T08:30:32.087Z</time>
      </trkpt>
      <trkpt lat="44.82546" lon="5.04482">
        <ele>389.88</ele>
        <time>2017-03-03T08:30:49.025Z</time>
      </trkpt>
      <trkpt lat="44.82548" lon="5.04515">
        <ele>389.07</ele>
        <time>2017-03-03T08:31:07.041Z</time>
      </trkpt>
      <trkpt lat="44.82545" lon="5.04548">
        <ele>388.45</ele>
        <time>2017-03-03T08:31:28.032Z</time>
      </trkpt>
      <trkpt lat="44.82556" lon="5.04576">
        <ele>390.2</ele>
        <time>2017-03-03T08:31:50.013Z</time>
      </trkpt>
      <trkpt lat="44.82578" lon="5.04585">
        <ele>393.21</ele>
        <time>2017-03-03T08:32:13.026Z</time>
      </trkpt>
      <trkpt lat="44.82596" lon="5.04605">
        <ele>394.77</ele>
        <time>2017-03-03T08:32:33.010Z</time>
      </trkpt>
      <trkpt lat="44.82611" lon="5.0463">
        <ele>394.88</ele>
        <time>2017-03-03T08:32:53.020Z</time>
      </trkpt>
      <trkpt lat="44.82628" lon="5.04651">
        <ele>394.71</ele>
        <time>2017-03-03T08:33:15.021Z</time>
      </trkpt>
      <trkpt lat="44.82633" lon="5.04683">
        <ele>393.09</ele>
        <time>2017-03-03T08:33:35.010Z</time>
      </trkpt>
      <trkpt lat="44.82645" lon="5.04711">
        <ele>392.21</ele>
        <time>2017-03-03T08:33:51.993Z</time>
      </trkpt>
      <trkpt lat="44.82636" lon="5.04742">
        <ele>390.33</ele>
        <time>2017-03-03T08:34:10.033Z</time>
      </trkpt>
      <trkpt lat="44.82632" lon="5.04775">
        <ele>389.64</ele>
        <time>2017-03-03T08:34:31.014Z</time>
      </trkpt>
      <trkpt lat="44.82627" lon="5.04806">
        <ele>389.94</ele>
        <time>2017-03-03T08:34:55.188Z</time>
      </trkpt>
      <trkpt lat="44.82615" lon="5.04833">
        <ele>390.46</ele>
        <time>2017-03-03T08:35:13.966Z</time>
      </trkpt>
      <trkpt lat="44.82603" lon="5.04862">
        <ele>391.96</ele>
        <time>2017-03-03T08:35:34.993Z</time>
      </trkpt>
      <trkpt lat="44.82605" lon="5.04896">
        <ele>395.71</ele>
        <time>2017-03-03T08:35:59.053Z</time>
      </trkpt>
      <trkpt lat="44.82587" lon="5.04916">
        <ele>397.18</ele>
        <time>2017-03-03T08:36:15.058Z</time>
      </trkpt>
      <trkpt lat="44.82585" lon="5.0495">
        <ele>402.85</ele>
        <time>2017-03-03T08:36:41.042Z</time>
      </trkpt>
      <trkpt lat="44.82575" lon="5.04978">
        <ele>407.11</ele>
        <time>2017-03-03T08:37:09.026Z</time>
      </trkpt>
      <trkpt lat="44.82558" lon="5.05">
        <ele>407.67</ele>
        <time>2017-03-03T08:37:42.987Z</time>
      </trkpt>
      <trkpt lat="44.82553" lon="5.05033">
        <ele>408.63</ele>
        <time>2017-03-03T08:38:20.046Z</time>
      </trkpt>
      <trkpt lat="44.82569" lon="5.05056">
        <ele>412.13</ele>
        <time>2017-03-03T08:38:42.043Z</time>
      </trkpt>
      <trkpt lat="44.82585" lon="5.05078">
        <ele>415.37</ele>
        <time>2017-03-03T08:39:06.047Z</time>
      </trkpt>
      <trkpt lat="44.82603" lon="5.05099">
        <ele>417.56</ele>
        <time>2017-03-03T08:39:25.047Z</time>
      </trkpt>
      <trkpt lat="44.8262" lon="5.05122">
        <ele>417.74</ele>
        <time>2017-03-03T08:39:45.062Z</time>
      </trkpt>
      <trkpt lat="44.82629" lon="5.05152">
        <ele>415.66</ele>
        <time>2017-03-03T08:40:05.046Z</time>
      </trkpt>
      <trkpt lat="44.82644" lon="5.05176">
        <ele>416.72</ele>
        <time>2017-03-03T08:40:25.028Z</time>
      </trkpt>
      <trkpt lat="44.82643" lon="5.05208">
        <ele>417.82</ele>
        <time>2017-03-03T08:40:45.027Z</time>
      </trkpt>
      <trkpt lat="44.8265" lon="5.05239">
        <ele>420.45</ele>
        <time>2017-03-03T08:41:07.041Z</time>
      </trkpt>
      <trkpt lat="44.82659" lon="5.05269">
        <ele>422.97</ele>
        <time>2017-03-03T08:41:35.201Z</time>
      </trkpt>
      <trkpt lat="44.82643" lon="5.05292">
        <ele>424.22</ele>
        <time>2017-03-03T08:41:54.071Z</time>
      </trkpt>
      <trkpt lat="44.82633" lon="5.05321">
        <ele>426.63</ele>
        <time>2017-03-03T08:42:17.995Z</time>
      </trkpt>
      <trkpt lat="44.82614" lon="5.05339">
        <ele>427.69</ele>
        <time>2017-03-03T08:42:43.990Z</time>
      </trkpt>
      <trkpt lat="44.82598" lon="5.05362">
        <ele>428.81</ele>
        <time>2017-03-03T08:43:09.030Z</time>
      </trkpt>
      <trkpt lat="44.82593" lon="5.05394">
        <ele>430.88</ele>
        <time>2017-03-03T08:43:42.037Z</time>
      </trkpt>
      <trkpt lat="44.82593" lon="5.05426">
        <ele>433.08</ele>
        <time>2017-03-03T08:44:07.020Z</time>
      </trkpt>
      <trkpt lat="44.82596" lon="5.05458">
        <ele>435.2</ele>
        <time>2017-03-03T08:44:37.019Z</time>
      </trkpt>
      <trkpt lat="44.82611" lon="5.05483">
        <ele>439.21</ele>
        <time>2017-03-03T08:45:05.024Z</time>
      </trkpt>
      <trkpt lat="44.82628" lon="5.05505">
        <ele>444.08</ele>
        <time>2017-03-03T08:45:29.023Z</time>
      </trkpt>
      <trkpt lat="44.82629" lon="5.05537">
        <ele>446.27</ele>
        <time>2017-03-03T08:45:52.023Z</time>
      </trkpt>
      <trkpt lat="44.82643" lon="5.05562">
        <ele>452.21</ele>
        <time>2017-03-03T08:47:46.000Z</time>
      </trkpt>
      <trkpt lat="44.82664" lon="5.05575">
        <ele>460.39</ele>
        <time>2017-03-03T08:48:24.025Z</time>
      </trkpt>
      <trkpt lat="44.8268" lon="5.056">
        <ele>468.07</ele>
        <time>2017-03-03T08:49:02.018Z</time>
      </trkpt>
      <trkpt lat="44.82681" lon="5.05632">
        <ele>472.29</ele>
        <time>2017-03-03T08:49:37.999Z</time>
      </trkpt>
      <trkpt lat="44.82684" lon="5.05666">
        <ele>476.87</ele>
        <time>2017-03-03T08:50:04.027Z</time>
      </trkpt>
      <trkpt lat="44.82691" lon="5.05698">
        <ele>483.94</ele>
        <time>2017-03-03T08:50:32.021Z</time>
      </trkpt>
      <trkpt lat="44.82686" lon="5.05734">
        <ele>486.75</ele>
        <time>2017-03-03T08:51:27.045Z</time>
      </trkpt>
      <trkpt lat="44.82687" lon="5.05768">
        <ele>491.72</ele>
        <time>2017-03-03T08:51:42.028Z</time>
      </trkpt>
      <trkpt lat="44.82688" lon="5.05801">
        <ele>497.16</ele>
        <time>2017-03-03T08:52:18.064Z</time>
      </trkpt>
      <trkpt lat="44.82685" lon="5.05834">
        <ele>501.41</ele>
        <time>2017-03-03T08:53:21.030Z</time>
      </trkpt>
      <trkpt lat="44.8268" lon="5.05867">
        <ele>505.8</ele>
        <time>2017-03-03T08:53:47.047Z</time>
      </trkpt>
      <trkpt lat="44.82674" lon="5.05898">
        <ele>510.36</ele>
        <time>2017-03-03T08:54:48.033Z</time>
      </trkpt>
      <trkpt lat="44.82669" lon="5.0593">
        <ele>514.6</ele>
        <time>2017-03-03T08:55:08.016Z</time>
      </trkpt>
      <trkpt lat="44.82673" lon="5.05961">
        <ele>519.97</ele>
        <time>2017-03-03T08:55:39.025Z</time>
      </trkpt>
      <trkpt lat="44.82691" lon="5.05982">
        <ele>523.86</ele>
        <time>2017-03-03T08:56:10.994Z</time>
      </trkpt>
      <trkpt lat="44.82705" lon="5.06007">
        <ele>524.52</ele>
        <time>2017-03-03T08:56:50.004Z</time>
      </trkpt>
      <trkpt lat="44.82701" lon="5.06039">
        <ele>525.69</ele>
        <time>2017-03-03T08:57:29.043Z</time>
      </trkpt>
      <trkpt lat="44.82701" lon="5.06071">
        <ele>526.14</ele>
        <time>2017-03-03T08:57:47.997Z</time>
      </trkpt>
      <trkpt lat="44.82703" lon="5.06103">
        <ele>526.86</ele>
        <time>2017-03-03T09:01:40.041Z</time>
      </trkpt>
      <trkpt lat="44.82707" lon="5.06135">
        <ele>527.17</ele>
        <time>2017-03-03T09:01:59.048Z</time>
      </trkpt>
      <trkpt lat="44.82707" lon="5.06167">
        <ele>529.63</ele>
        <time>2017-03-03T09:02:23.035Z</time>
      </trkpt>
      <trkpt lat="44.82708" lon="5.06201">
        <ele>534.33</ele>
        <time>2017-03-03T09:02:44.015Z</time>
      </trkpt>
      <trkpt lat="44.82713" lon="5.06232">
        <ele>539.02</ele>
        <time>2017-03-03T09:03:02.031Z</time>
      </trkpt>
      <trkpt lat="44.82725" lon="5.06259">
        <ele>541.62</ele>
        <time>2017-03-03T09:03:21.995Z</time>
      </trkpt>
      <trkpt lat="44.82735" lon="5.0629">
        <ele>545.43</ele>
        <time>2017-03-03T09:03:40.994Z</time>
      </trkpt>
      <trkpt lat="44.82737" lon="5.06323">
        <ele>551.11</ele>
        <time>2017-03-03T09:04:04.050Z</time>
      </trkpt>
      <trkpt lat="44.82755" lon="5.063">
        <ele>547.25</ele>
        <time>2017-03-03T09:04:46.040Z</time>
      </trkpt>
      <trkpt lat="44.82772" lon="5.06277">
        <ele>546</ele>
        <time>2017-03-03T09:05:11.061Z</time>
      </trkpt>
      <trkpt lat="44.8279" lon="5.06258">
        <ele>547.04</ele>
        <time>2017-03-03T09:05:37.019Z</time>
      </trkpt>
      <trkpt lat="44.82808" lon="5.06238">
        <ele>547.39</ele>
        <time>2017-03-03T09:06:06.021Z</time>
      </trkpt>
      <trkpt lat="44.82829" lon="5.06225">
        <ele>548.12</ele>
        <time>2017-03-03T09:06:32.029Z</time>
      </trkpt>
      <trkpt lat="44.82852" lon="5.06217">
        <ele>547.18</ele>
        <time>2017-03-03T09:07:01.020Z</time>
      </trkpt>
      <trkpt lat="44.82873" lon="5.06231">
        <ele>550.53</ele>
        <time>2017-03-03T09:07:29.018Z</time>
      </trkpt>
      <trkpt lat="44.82887" lon="5.06257">
        <ele>557.01</ele>
        <time>2017-03-03T09:07:52.040Z</time>
      </trkpt>
      <trkpt lat="44.8291" lon="5.06268">
        <ele>559.63</ele>
        <time>2017-03-03T09:08:16.019Z</time>
      </trkpt>
      <trkpt lat="44.82931" lon="5.06279">
        <ele>562.82</ele>
        <time>2017-03-03T09:08:36.021Z</time>
      </trkpt>
      <trkpt lat="44.82954" lon="5.06281">
        <ele>563</ele>
        <time>2017-03-03T09:08:57.055Z</time>
      </trkpt>
      <trkpt lat="44.82978" lon="5.06276">
        <ele>560.44</ele>
        <time>2017-03-03T09:09:21.019Z</time>
      </trkpt>
      <trkpt lat="44.83001" lon="5.06274">
        <ele>560.34</ele>
        <time>2017-03-03T09:09:43.032Z</time>
      </trkpt>
      <trkpt lat="44.83022" lon="5.06262">
        <ele>559</ele>
        <time>2017-03-03T09:10:02.136Z</time>
      </trkpt>
      <trkpt lat="44.8304" lon="5.0624">
        <ele>556.33</ele>
        <time>2017-03-03T09:10:25.180Z</time>
      </trkpt>
      <trkpt lat="44.83063" lon="5.06233">
        <ele>559.02</ele>
        <time>2017-03-03T09:10:48.141Z</time>
      </trkpt>
      <trkpt lat="44.83082" lon="5.06217">
        <ele>556.95</ele>
        <time>2017-03-03T09:11:12.081Z</time>
      </trkpt>
      <trkpt lat="44.83104" lon="5.06209">
        <ele>555.96</ele>
        <time>2017-03-03T09:11:32.068Z</time>
      </trkpt>
      <trkpt lat="44.83127" lon="5.0621">
        <ele>556.64</ele>
        <time>2017-03-03T09:11:54.071Z</time>
      </trkpt>
      <trkpt lat="44.8315" lon="5.06207">
        <ele>554.89</ele>
        <time>2017-03-03T09:12:16.004Z</time>
      </trkpt>
      <trkpt lat="44.83171" lon="5.06221">
        <ele>553.48</ele>
        <time>2017-03-03T09:12:58.992Z</time>
      </trkpt>
      <trkpt lat="44.83167" lon="5.06253">
        <ele>554.81</ele>
        <time>2017-03-03T09:13:36.007Z</time>
      </trkpt>
      <trkpt lat="44.8315" lon="5.06277">
        <ele>557.97</ele>
        <time>2017-03-03T09:13:51.015Z</time>
      </trkpt>
      <trkpt lat="44.83146" lon="5.06308">
        <ele>556.66</ele>
        <time>2017-03-03T09:14:08.008Z</time>
      </trkpt>
      <trkpt lat="44.83139" lon="5.06339">
        <ele>556.97</ele>
        <time>2017-03-03T09:14:28.018Z</time>
      </trkpt>
      <trkpt lat="44.83134" lon="5.06371">
        <ele>555.25</ele>
        <time>2017-03-03T09:14:47.019Z</time>
      </trkpt>
      <trkpt lat="44.83126" lon="5.06403">
        <ele>554.35</ele>
        <time>2017-03-03T09:15:06.020Z</time>
      </trkpt>
      <trkpt lat="44.83126" lon="5.06435">
        <ele>552.71</ele>
        <time>2017-03-03T09:15:30.021Z</time>
      </trkpt>
      <trkpt lat="44.83115" lon="5.06464">
        <ele>556.4</ele>
        <time>2017-03-03T09:15:45.021Z</time>
      </trkpt>
      <trkpt lat="44.83116" lon="5.06497">
        <ele>557.39</ele>
        <time>2017-03-03T09:16:06.020Z</time>
      </trkpt>
      <trkpt lat="44.83121" lon="5.06528">
        <ele>560.72</ele>
        <time>2017-03-03T09:16:39.008Z</time>
      </trkpt>
      <trkpt lat="44.83144" lon="5.06523">
        <ele>555.82</ele>
        <time>2017-03-03T09:17:02.059Z</time>
      </trkpt>
      <trkpt lat="44.83168" lon="5.06521">
        <ele>552.25</ele>
        <time>2017-03-03T09:17:26.021Z</time>
      </trkpt>
      <trkpt lat="44.83189" lon="5.06538">
        <ele>555.33</ele>
        <time>2017-03-03T09:17:42.056Z</time>
      </trkpt>
      <trkpt lat="44.83208" lon="5.06557">
        <ele>559.44</ele>
        <time>2017-03-03T09:18:55.023Z</time>
      </trkpt>
      <trkpt lat="44.83226" lon="5.06576">
        <ele>564.17</ele>
        <time>2017-03-03T09:19:25.018Z</time>
      </trkpt>
      <trkpt lat="44.83242" lon="5.06599">
        <ele>569.71</ele>
        <time>2017-03-03T09:19:52.023Z</time>
      </trkpt>
      <trkpt lat="44.8326" lon="5.06621">
        <ele>575.34</ele>
        <time>2017-03-03T09:20:19.021Z</time>
      </trkpt>
      <trkpt lat="44.83283" lon="5.06625">
        <ele>578.74</ele>
        <time>2017-03-03T09:20:46.033Z</time>
      </trkpt>
      <trkpt lat="44.83303" lon="5.0661">
        <ele>577.75</ele>
        <time>2017-03-03T09:21:13.039Z</time>
      </trkpt>
      <trkpt lat="44.83325" lon="5.06618">
        <ele>580.61</ele>
        <time>2017-03-03T09:21:56.047Z</time>
      </trkpt>
      <trkpt lat="44.83346" lon="5.06634">
        <ele>581.66</ele>
        <time>2017-03-03T09:22:12.040Z</time>
      </trkpt>
      <trkpt lat="44.83363" lon="5.06657">
        <ele>582.76</ele>
        <time>2017-03-03T09:22:32.030Z</time>
      </trkpt>
      <trkpt lat="44.83371" lon="5.06687">
        <ele>587.46</ele>
        <time>2017-03-03T09:22:54.038Z</time>
      </trkpt>
      <trkpt lat="44.83375" lon="5.0672">
        <ele>594.14</ele>
        <time>2017-03-03T09:23:25.025Z</time>
      </trkpt>
      <trkpt lat="44.8339" lon="5.06744">
        <ele>598.06</ele>
        <time>2017-03-03T09:23:51.032Z</time>
      </trkpt>
      <trkpt lat="44.83411" lon="5.06757">
        <ele>598.67</ele>
        <time>2017-03-03T09:24:14.055Z</time>
      </trkpt>
      <trkpt lat="44.83431" lon="5.06771">
        <ele>600.47</ele>
        <time>2017-03-03T09:24:40.071Z</time>
      </trkpt>
      <trkpt lat="44.83454" lon="5.06777">
        <ele>600.31</ele>
        <time>2017-03-03T09:25:07.030Z</time>
      </trkpt>
      <trkpt lat="44.83471" lon="5.068">
        <ele>604.75</ele>
        <time>2017-03-03T09:25:26.044Z</time>
      </trkpt>
      <trkpt lat="44.83491" lon="5.06821">
        <ele>609.13</ele>
        <time>2017-03-03T09:25:54.023Z</time>
      </trkpt>
      <trkpt lat="44.83515" lon="5.06828">
        <ele>609.53</ele>
        <time>2017-03-03T09:26:35.063Z</time>
      </trkpt>
      <trkpt lat="44.83539" lon="5.06829">
        <ele>609.67</ele>
        <time>2017-03-03T09:26:53.043Z</time>
      </trkpt>
      <trkpt lat="44.83561" lon="5.06823">
        <ele>607.59</ele>
        <time>2017-03-03T09:27:16.051Z</time>
      </trkpt>
      <trkpt lat="44.83584" lon="5.06822">
        <ele>605.58</ele>
        <time>2017-03-03T09:27:38.984Z</time>
      </trkpt>
      <trkpt lat="44.83606" lon="5.06821">
        <ele>602.04</ele>
        <time>2017-03-03T09:27:59.045Z</time>
      </trkpt>
      <trkpt lat="44.83627" lon="5.06839">
        <ele>601.46</ele>
        <time>2017-03-03T09:28:24.998Z</time>
      </trkpt>
      <trkpt lat="44.83637" lon="5.06868">
        <ele>603.64</ele>
        <time>2017-03-03T09:28:43.009Z</time>
      </trkpt>
      <trkpt lat="44.83648" lon="5.06897">
        <ele>604.06</ele>
        <time>2017-03-03T09:29:00.009Z</time>
      </trkpt>
      <trkpt lat="44.83654" lon="5.06927">
        <ele>607.34</ele>
        <time>2017-03-03T09:35:06.024Z</time>
      </trkpt>
      <trkpt lat="44.83677" lon="5.06932">
        <ele>601.35</ele>
        <time>2017-03-03T09:35:29.041Z</time>
      </trkpt>
      <trkpt lat="44.83697" lon="5.06915">
        <ele>593.23</ele>
        <time>2017-03-03T09:35:53.066Z</time>
      </trkpt>
      <trkpt lat="44.83715" lon="5.06892">
        <ele>586.56</ele>
        <time>2017-03-03T09:36:31.001Z</time>
      </trkpt>
      <trkpt lat="44.83727" lon="5.06863">
        <ele>580.9</ele>
        <time>2017-03-03T09:36:59.000Z</time>
      </trkpt>
      <trkpt lat="44.83736" lon="5.06833">
        <ele>575.37</ele>
        <time>2017-03-03T09:37:45.022Z</time>
      </trkpt>
      <trkpt lat="44.83746" lon="5.06804">
        <ele>569.12</ele>
        <time>2017-03-03T09:38:20.970Z</time>
      </trkpt>
      <trkpt lat="44.83771" lon="5.06802">
        <ele>565.65</ele>
        <time>2017-03-03T09:41:33.971Z</time>
      </trkpt>
      <trkpt lat="44.83777" lon="5.06769">
        <ele>560.09</ele>
        <time>2017-03-03T09:42:11.045Z</time>
      </trkpt>
      <trkpt lat="44.83782" lon="5.06737">
        <ele>555.04</ele>
        <time>2017-03-03T09:42:44.986Z</time>
      </trkpt>
      <trkpt lat="44.8378" lon="5.06705">
        <ele>550.59</ele>
        <time>2017-03-03T09:44:55.036Z</time>
      </trkpt>
      <trkpt lat="44.83769" lon="5.06675">
        <ele>547.29</ele>
        <time>2017-03-03T09:45:07.024Z</time>
      </trkpt>
      <trkpt lat="44.83765" lon="5.06643">
        <ele>542.77</ele>
        <time>2017-03-03T09:45:27.029Z</time>
      </trkpt>
      <trkpt lat="44.8376" lon="5.0661">
        <ele>538.09</ele>
        <time>2017-03-03T09:45:49.020Z</time>
      </trkpt>
      <trkpt lat="44.83757" lon="5.06579">
        <ele>533.04</ele>
        <time>2017-03-03T09:46:22.028Z</time>
      </trkpt>
      <trkpt lat="44.83758" lon="5.06545">
        <ele>527.64</ele>
        <time>2017-03-03T09:46:47.053Z</time>
      </trkpt>
      <trkpt lat="44.83764" lon="5.06515">
        <ele>523.14</ele>
        <time>2017-03-03T09:47:14.052Z</time>
      </trkpt>
      <trkpt lat="44.83754" lon="5.06486">
        <ele>517.79</ele>
        <time>2017-03-03T09:47:43.037Z</time>
      </trkpt>
      <trkpt lat="44.83741" lon="5.06459">
        <ele>513.24</ele>
        <time>2017-03-03T09:48:08.052Z</time>
      </trkpt>
      <trkpt lat="44.83726" lon="5.06432">
        <ele>510.96</ele>
        <time>2017-03-03T09:48:31.061Z</time>
      </trkpt>
      <trkpt lat="44.83723" lon="5.064">
        <ele>507.45</ele>
        <time>2017-03-03T09:48:51.025Z</time>
      </trkpt>
      <trkpt lat="44.8371" lon="5.06371">
        <ele>506.82</ele>
        <time>2017-03-03T09:49:20.049Z</time>
      </trkpt>
      <trkpt lat="44.83698" lon="5.06343">
        <ele>505.4</ele>
        <time>2017-03-03T09:50:16.017Z</time>
      </trkpt>
      <trkpt lat="44.837" lon="5.06311">
        <ele>499.21</ele>
        <time>2017-03-03T09:50:27.972Z</time>
      </trkpt>
      <trkpt lat="44.83693" lon="5.0628">
        <ele>493.14</ele>
        <time>2017-03-03T09:50:56.077Z</time>
      </trkpt>
      <trkpt lat="44.83692" lon="5.06246">
        <ele>486.6</ele>
        <time>2017-03-03T09:51:19.964Z</time>
      </trkpt>
      <trkpt lat="44.83694" lon="5.06214">
        <ele>482.52</ele>
        <time>2017-03-03T09:51:45.979Z</time>
      </trkpt>
      <trkpt lat="44.83688" lon="5.0618">
        <ele>478</ele>
        <time>2017-03-03T09:52:12.973Z</time>
      </trkpt>
      <trkpt lat="44.83676" lon="5.06153">
        <ele>472.94</ele>
        <time>2017-03-03T09:52:43.995Z</time>
      </trkpt>
      <trkpt lat="44.83655" lon="5.06135">
        <ele>468.82</ele>
        <time>2017-03-03T09:53:06.977Z</time>
      </trkpt>
      <trkpt lat="44.83653" lon="5.06102">
        <ele>465.42</ele>
        <time>2017-03-03T09:55:29.008Z</time>
      </trkpt>
      <trkpt lat="44.83652" lon="5.06069">
        <ele>461.28</ele>
        <time>2017-03-03T09:55:52.023Z</time>
      </trkpt>
      <trkpt lat="44.83647" lon="5.06037">
        <ele>455.84</ele>
        <time>2017-03-03T09:56:12.988Z</time>
      </trkpt>
      <trkpt lat="44.83643" lon="5.06004">
        <ele>450.87</ele>
        <time>2017-03-03T09:56:33.982Z</time>
      </trkpt>
      <trkpt lat="44.8365" lon="5.05973">
        <ele>447.65</ele>
        <time>2017-03-03T09:56:53.050Z</time>
      </trkpt>
      <trkpt lat="44.8367" lon="5.05957">
        <ele>446.92</ele>
        <time>2017-03-03T09:57:45.983Z</time>
      </trkpt>
      <trkpt lat="44.83688" lon="5.05937">
        <ele>446.3</ele>
        <time>2017-03-03T09:58:01.008Z</time>
      </trkpt>
      <trkpt lat="44.83705" lon="5.05913">
        <ele>445.8</ele>
        <time>2017-03-03T09:58:23.046Z</time>
      </trkpt>
      <trkpt lat="44.83719" lon="5.05889">
        <ele>445.07</ele>
        <time>2017-03-03T09:58:42.027Z</time>
      </trkpt>
      <trkpt lat="44.83734" lon="5.05862">
        <ele>443.74</ele>
        <time>2017-03-03T09:59:03.029Z</time>
      </trkpt>
      <trkpt lat="44.83752" lon="5.05842">
        <ele>442.91</ele>
        <time>2017-03-03T09:59:23.998Z</time>
      </trkpt>
      <trkpt lat="44.83768" lon="5.05818">
        <ele>440</ele>
        <time>2017-03-03T09:59:47.022Z</time>
      </trkpt>
      <trkpt lat="44.83785" lon="5.05797">
        <ele>437.44</ele>
        <time>2017-03-03T10:00:06.028Z</time>
      </trkpt>
      <trkpt lat="44.83801" lon="5.05774">
        <ele>433.96</ele>
        <time>2017-03-03T10:00:29.025Z</time>
      </trkpt>
      <trkpt lat="44.83818" lon="5.05752">
        <ele>432.09</ele>
        <time>2017-03-03T10:00:55.034Z</time>
      </trkpt>
      <trkpt lat="44.83835" lon="5.05731">
        <ele>430.01</ele>
        <time>2017-03-03T10:01:15.023Z</time>
      </trkpt>
      <trkpt lat="44.83851" lon="5.05708">
        <ele>427.55</ele>
        <time>2017-03-03T10:01:54.032Z</time>
      </trkpt>
      <trkpt lat="44.83869" lon="5.05688">
        <ele>426.34</ele>
        <time>2017-03-03T10:02:16.957Z</time>
      </trkpt>
      <trkpt lat="44.83885" lon="5.05663">
        <ele>423.82</ele>
        <time>2017-03-03T10:04:30.987Z</time>
      </trkpt>
      <trkpt lat="44.83901" lon="5.05641">
        <ele>421.33</ele>
        <time>2017-03-03T10:04:49.011Z</time>
      </trkpt>
      <trkpt lat="44.83918" lon="5.05619">
        <ele>418.69</ele>
        <time>2017-03-03T10:05:08.972Z</time>
      </trkpt>
      <trkpt lat="44.83933" lon="5.05593">
        <ele>415.76</ele>
        <time>2017-03-03T10:05:37.003Z</time>
      </trkpt>
      <trkpt lat="44.83949" lon="5.05569">
        <ele>415.07</ele>
        <time>2017-03-03T10:05:56.049Z</time>
      </trkpt>
      <trkpt lat="44.83957" lon="5.05539">
        <ele>412.95</ele>
        <time>2017-03-03T10:06:14.028Z</time>
      </trkpt>
      <trkpt lat="44.8397" lon="5.05511">
        <ele>411.88</ele>
        <time>2017-03-03T10:06:35.056Z</time>
      </trkpt>
      <trkpt lat="44.83987" lon="5.05488">
        <ele>411.21</ele>
        <time>2017-03-03T10:06:55.002Z</time>
      </trkpt>
      <trkpt lat="44.83996" lon="5.05457">
        <ele>407.59</ele>
        <time>2017-03-03T10:07:18.088Z</time>
      </trkpt>
      <trkpt lat="44.84002" lon="5.05426">
        <ele>403.55</ele>
        <time>2017-03-03T10:07:36.032Z</time>
      </trkpt>
      <trkpt lat="44.84009" lon="5.05394">
        <ele>399.7</ele>
        <time>2017-03-03T10:07:56.046Z</time>
      </trkpt>
      <trkpt lat="44.84021" lon="5.05367">
        <ele>397.48</ele>
        <time>2017-03-03T10:08:12.987Z</time>
      </trkpt>
      <trkpt lat="44.84034" lon="5.05339">
        <ele>395.58</ele>
        <time>2017-03-03T10:08:35.041Z</time>
      </trkpt>
      <trkpt lat="44.84043" lon="5.05306">
        <ele>393.06</ele>
        <time>2017-03-03T10:08:53.022Z</time>
      </trkpt>
      <trkpt lat="44.84058" lon="5.05281">
        <ele>392.25</ele>
        <time>2017-03-03T10:09:13.996Z</time>
      </trkpt>
      <trkpt lat="44.8407" lon="5.05254">
        <ele>390.11</ele>
        <time>2017-03-03T10:09:36.986Z</time>
      </trkpt>
      <trkpt lat="44.84088" lon="5.05235">
        <ele>388.6</ele>
        <time>2017-03-03T10:09:55.013Z</time>
      </trkpt>
      <trkpt lat="44.84102" lon="5.05209">
        <ele>387.44</ele>
        <time>2017-03-03T10:10:13.001Z</time>
      </trkpt>
      <trkpt lat="44.84101" lon="5.05178">
        <ele>386.8</ele>
        <time>2017-03-03T10:10:30.035Z</time>
      </trkpt>
      <trkpt lat="44.84088" lon="5.05151">
        <ele>384.91</ele>
        <time>2017-03-03T10:10:52.013Z</time>
      </trkpt>
      <trkpt lat="44.84075" lon="5.05124">
        <ele>383.44</ele>
        <time>2017-03-03T10:11:25.989Z</time>
      </trkpt>
      <trkpt lat="44.84069" lon="5.05091">
        <ele>382.51</ele>
        <time>2017-03-03T10:11:45.113Z</time>
      </trkpt>
      <trkpt lat="44.84082" lon="5.05063">
        <ele>381.46</ele>
        <time>2017-03-03T10:12:02.143Z</time>
      </trkpt>
      <trkpt lat="44.84089" lon="5.05033">
        <ele>378.89</ele>
        <time>2017-03-03T10:12:17.974Z</time>
      </trkpt>
      <trkpt lat="44.84102" lon="5.05005">
        <ele>376.96</ele>
        <time>2017-03-03T10:12:38.026Z</time>
      </trkpt>
      <trkpt lat="44.8411" lon="5.04973">
        <ele>375.98</ele>
        <time>2017-03-03T10:12:57.067Z</time>
      </trkpt>
      <trkpt lat="44.84115" lon="5.04942">
        <ele>375.55</ele>
        <time>2017-03-03T10:13:18.035Z</time>
      </trkpt>
      <trkpt lat="44.84132" lon="5.04919">
        <ele>373.71</ele>
        <time>2017-03-03T10:13:46.042Z</time>
      </trkpt>
      <trkpt lat="44.84146" lon="5.04893">
        <ele>372.38</ele>
        <time>2017-03-03T10:14:05.034Z</time>
      </trkpt>
      <trkpt lat="44.84146" lon="5.04861">
        <ele>371.91</ele>
        <time>2017-03-03T10:14:26.031Z</time>
      </trkpt>
      <trkpt lat="44.84145" lon="5.04828">
        <ele>369.62</ele>
        <time>2017-03-03T10:14:48.998Z</time>
      </trkpt>
      <trkpt lat="44.84127" lon="5.04805">
        <ele>367.8</ele>
        <time>2017-03-03T10:15:06.038Z</time>
      </trkpt>
      <trkpt lat="44.84107" lon="5.0479">
        <ele>367.45</ele>
        <time>2017-03-03T10:15:24.021Z</time>
      </trkpt>
      <trkpt lat="44.84085" lon="5.04781">
        <ele>369.3</ele>
        <time>2017-03-03T10:15:40.967Z</time>
      </trkpt>
      <trkpt lat="44.84072" lon="5.04754">
        <ele>365.22</ele>
        <time>2017-03-03T10:16:30.019Z</time>
      </trkpt>
      <trkpt lat="44.84047" lon="5.04758">
        <ele>373.38</ele>
        <time>2017-03-03T10:16:45.022Z</time>
      </trkpt>
      <trkpt lat="44.84024" lon="5.0475">
        <ele>379.37</ele>
        <time>2017-03-03T10:17:00.995Z</time>
      </trkpt>
      <trkpt lat="44.84009" lon="5.04725">
        <ele>379.27</ele>
        <time>2017-03-03T10:17:27.988Z</time>
      </trkpt>
      <trkpt lat="44.84006" lon="5.04693">
        <ele>375.9</ele>
        <time>2017-03-03T10:17:44.994Z</time>
      </trkpt>
      <trkpt lat="44.84014" lon="5.04663">
        <ele>370.42</ele>
        <time>2017-03-03T10:18:11.040Z</time>
      </trkpt>
      <trkpt lat="44.84012" lon="5.0463">
        <ele>367.08</ele>
        <time>2017-03-03T10:18:30.987Z</time>
      </trkpt>
      <trkpt lat="44.84023" lon="5.04601">
        <ele>361.13</ele>
        <time>2017-03-03T10:18:51.001Z</time>
      </trkpt>
      <trkpt lat="44.84023" lon="5.04567">
        <ele>357.38</ele>
        <time>2017-03-03T10:20:57.022Z</time>
      </trkpt>
      <trkpt lat="44.83999" lon="5.04564">
        <ele>361.76</ele>
        <time>2017-03-03T10:21:08.963Z</time>
      </trkpt>
      <trkpt lat="44.83984" lon="5.04538">
        <ele>360.05</ele>
        <time>2017-03-03T10:21:28.009Z</time>
      </trkpt>
      <trkpt lat="44.83965" lon="5.04518">
        <ele>358.19</ele>
        <time>2017-03-03T10:21:48.018Z</time>
      </trkpt>
      <trkpt lat="44.83944" lon="5.04503">
        <ele>355.75</ele>
        <time>2017-03-03T10:22:06.027Z</time>
      </trkpt>
      <trkpt lat="44.83924" lon="5.04486">
        <ele>352.65</ele>
        <time>2017-03-03T10:22:30.055Z</time>
      </trkpt>
      <trkpt lat="44.83907" lon="5.0446">
        <ele>349.18</ele>
        <time>2017-03-03T10:23:00.034Z</time>
      </trkpt>
      <trkpt lat="44.83888" lon="5.04438">
        <ele>346.82</ele>
        <time>2017-03-03T10:23:12.030Z</time>
      </trkpt>
      <trkpt lat="44.83867" lon="5.04428">
        <ele>345.53</ele>
        <time>2017-03-03T10:23:26.021Z</time>
      </trkpt>
      <trkpt lat="44.83845" lon="5.04422">
        <ele>344.43</ele>
        <time>2017-03-03T10:23:45.979Z</time>
      </trkpt>
      <trkpt lat="44.83821" lon="5.04421">
        <ele>343.02</ele>
        <time>2017-03-03T10:24:03.969Z</time>
      </trkpt>
      <trkpt lat="44.83798" lon="5.04419">
        <ele>341.55</ele>
        <time>2017-03-03T10:24:21.024Z</time>
      </trkpt>
      <trkpt lat="44.83774" lon="5.04415">
        <ele>340.02</ele>
        <time>2017-03-03T10:24:42.998Z</time>
      </trkpt>
      <trkpt lat="44.8375" lon="5.04412">
        <ele>338.44</ele>
        <time>2017-03-03T10:24:59.019Z</time>
      </trkpt>
      <trkpt lat="44.83727" lon="5.04412">
        <ele>336.29</ele>
        <time>2017-03-03T10:25:15.990Z</time>
      </trkpt>
      <trkpt lat="44.83703" lon="5.04411">
        <ele>333.92</ele>
        <time>2017-03-03T10:25:33.982Z</time>
      </trkpt>
      <trkpt lat="44.8368" lon="5.04412">
        <ele>331.53</ele>
        <time>2017-03-03T10:25:52.008Z</time>
      </trkpt>
      <trkpt lat="44.83658" lon="5.04413">
        <ele>329.15</ele>
        <time>2017-03-03T10:26:09.991Z</time>
      </trkpt>
      <trkpt lat="44.83634" lon="5.0441">
        <ele>326.63</ele>
        <time>2017-03-03T10:26:30.025Z</time>
      </trkpt>
      <trkpt lat="44.83611" lon="5.04407">
        <ele>324.01</ele>
        <time>2017-03-03T10:27:20.012Z</time>
      </trkpt>
      <trkpt lat="44.83589" lon="5.04405">
        <ele>321.9</ele>
        <time>2017-03-03T10:27:44.020Z</time>
      </trkpt>
      <trkpt lat="44.83573" lon="5.04381">
        <ele>320.43</ele>
        <time>2017-03-03T10:28:02.022Z</time>
      </trkpt>
      <trkpt lat="44.83567" lon="5.0435">
        <ele>319.88</ele>
        <time>2017-03-03T10:28:33.018Z</time>
      </trkpt>
      <trkpt lat="44.83545" lon="5.04344">
        <ele>320.38</ele>
        <time>2017-03-03T10:30:17.065Z</time>
      </trkpt>
      <trkpt lat="44.83523" lon="5.04359">
        <ele>321.33</ele>
        <time>2017-03-03T10:31:20.049Z</time>
      </trkpt>
      <trkpt lat="44.835" lon="5.04347">
        <ele>324.73</ele>
        <time>2017-03-03T10:31:52.007Z</time>
      </trkpt>
      <trkpt lat="44.83477" lon="5.04349">
        <ele>328.83</ele>
        <time>2017-03-03T10:32:50.029Z</time>
      </trkpt>
      <trkpt lat="44.83453" lon="5.04345">
        <ele>335.23</ele>
        <time>2017-03-03T10:33:22.014Z</time>
      </trkpt>
      <trkpt lat="44.83432" lon="5.04333">
        <ele>342.44</ele>
        <time>2017-03-03T10:33:47.016Z</time>
      </trkpt>
      <trkpt lat="44.8341" lon="5.04332">
        <ele>347.53</ele>
        <time>2017-03-03T10:34:27.949Z</time>
      </trkpt>
      <trkpt lat="44.83387" lon="5.04332">
        <ele>351.88</ele>
        <time>2017-03-03T10:34:54.965Z</time>
      </trkpt>
      <trkpt lat="44.83363" lon="5.04331">
        <ele>356.2</ele>
        <time>2017-03-03T10:35:29.013Z</time>
      </trkpt>
      <trkpt lat="44.8334" lon="5.0434">
        <ele>358.27</ele>
        <time>2017-03-03T10:36:00.961Z</time>
      </trkpt>
      <trkpt lat="44.83316" lon="5.04338">
        <ele>361.1</ele>
        <time>2017-03-03T10:36:26.042Z</time>
      </trkpt>
      <trkpt lat="44.83294" lon="5.04342">
        <ele>362.24</ele>
        <time>2017-03-03T10:36:54.996Z</time>
      </trkpt>
      <trkpt lat="44.8327" lon="5.04338">
        <ele>364.2</ele>
        <time>2017-03-03T10:37:23.004Z</time>
      </trkpt>
      <trkpt lat="44.83248" lon="5.04332">
        <ele>366.29</ele>
        <time>2017-03-03T10:37:48.958Z</time>
      </trkpt>
      <trkpt lat="44.83224" lon="5.04325">
        <ele>368.57</ele>
        <time>2017-03-03T10:38:09.981Z</time>
      </trkpt>
      <trkpt lat="44.83201" lon="5.04329">
        <ele>370.7</ele>
        <time>2017-03-03T10:38:33.961Z</time>
      </trkpt>
      <trkpt lat="44.83179" lon="5.04328">
        <ele>372.94</ele>
        <time>2017-03-03T10:39:03.962Z</time>
      </trkpt>
      <trkpt lat="44.83156" lon="5.04331">
        <ele>375.12</ele>
        <time>2017-03-03T10:39:29.960Z</time>
      </trkpt>
      <trkpt lat="44.83132" lon="5.04329">
        <ele>377.52</ele>
        <time>2017-03-03T10:39:54.964Z</time>
      </trkpt>
      <trkpt lat="44.83107" lon="5.04335">
        <ele>379.87</ele>
        <time>2017-03-03T10:40:17.028Z</time>
      </trkpt>
      <trkpt lat="44.83085" lon="5.04331">
        <ele>381.92</ele>
        <time>2017-03-03T10:40:43.999Z</time>
      </trkpt>
      <trkpt lat="44.83062" lon="5.04334">
        <ele>383.56</ele>
        <time>2017-03-03T10:41:05.988Z</time>
      </trkpt>
      <trkpt lat="44.8304" lon="5.04336">
        <ele>384.98</ele>
        <time>2017-03-03T10:41:58.031Z</time>
      </trkpt>
      <trkpt lat="44.83017" lon="5.04335">
        <ele>386.26</ele>
        <time>2017-03-03T10:42:14.005Z</time>
      </trkpt>
      <trkpt lat="44.82993" lon="5.04328">
        <ele>387.21</ele>
        <time>2017-03-03T10:42:38.992Z</time>
      </trkpt>
      <trkpt lat="44.8297" lon="5.04326">
        <ele>387.41</ele>
        <time>2017-03-03T10:42:56.996Z</time>
      </trkpt>
      <trkpt lat="44.82948" lon="5.04332">
        <ele>387.56</ele>
        <time>2017-03-03T10:43:18.998Z</time>
      </trkpt>
      <trkpt lat="44.82924" lon="5.04336">
        <ele>387.87</ele>
        <time>2017-03-03T10:43:38.977Z</time>
      </trkpt>
      <trkpt lat="44.82901" lon="5.04336">
        <ele>388.78</ele>
        <time>2017-03-03T10:44:01.997Z</time>
      </trkpt>
      <trkpt lat="44.82878" lon="5.04335">
        <ele>390.13</ele>
        <time>2017-03-03T10:44:35.037Z</time>
      </trkpt>
      <trkpt lat="44.82855" lon="5.04345">
        <ele>391.9</ele>
        <time>2017-03-03T10:44:49.991Z</time>
      </trkpt>
      <trkpt lat="44.82834" lon="5.04356">
        <ele>393.04</ele>
        <time>2017-03-03T10:45:16.991Z</time>
      </trkpt>
      <trkpt lat="44.82812" lon="5.04363">
        <ele>393.73</ele>
        <time>2017-03-03T10:45:38.005Z</time>
      </trkpt>
      <trkpt lat="44.8279" lon="5.04375">
        <ele>394.71</ele>
        <time>2017-03-03T10:45:58.995Z</time>
      </trkpt>
      <trkpt lat="44.8277" lon="5.0439">
        <ele>396.37</ele>
        <time>2017-03-03T10:46:20.026Z</time>
      </trkpt>
      <trkpt lat="44.82747" lon="5.04397">
        <ele>397.98</ele>
        <time>2017-03-03T10:46:40.025Z</time>
      </trkpt>
      <trkpt lat="44.82725" lon="5.04407">
        <ele>399.62</ele>
        <time>2017-03-03T10:47:04.991Z</time>
      </trkpt>
      <trkpt lat="44.82701" lon="5.04413">
        <ele>400.71</ele>
        <time>2017-03-03T10:48:02.991Z</time>
      </trkpt>
      <trkpt lat="44.8268" lon="5.04422">
        <ele>401.49</ele>
        <time>2017-03-03T10:48:37.996Z</time>
      </trkpt>
      <trkpt lat="44.82657" lon="5.04418">
        <ele>400.83</ele>
        <time>2017-03-03T10:49:21.997Z</time>
      </trkpt>
      <trkpt lat="44.82651" lon="5.04387">
        <ele>397.34</ele>
        <time>2017-03-03T10:50:49.995Z</time>
      </trkpt>
      <trkpt lat="44.82632" lon="5.04369">
        <ele>393.95</ele>
        <time>2017-03-03T10:51:25.988Z</time>
      </trkpt>
      <trkpt lat="44.82609" lon="5.04374">
        <ele>393.5</ele>
        <time>2017-03-03T10:51:49.992Z</time>
      </trkpt>
      <trkpt lat="44.82585" lon="5.04377">
        <ele>392.67</ele>
        <time>2017-03-03T10:52:17.992Z</time>
      </trkpt>
      <trkpt lat="44.82563" lon="5.04371">
        <ele>390.57</ele>
        <time>2017-03-03T10:52:41.022Z</time>
      </trkpt>
      <trkpt lat="44.82541" lon="5.04361">
        <ele>387.9</ele>
        <time>2017-03-03T10:53:00.018Z</time>
      </trkpt>
      <trkpt lat="44.8252" lon="5.04371">
        <ele>387.84</ele>
        <time>2017-03-03T10:53:19.987Z</time>
      </trkpt>
      <trkpt lat="44.82497" lon="5.04382">
        <ele>387.61</ele>
        <time>2017-03-03T10:53:51.987Z</time>
      </trkpt>
      <trkpt lat="44.82474" lon="5.04379">
        <ele>386.58</ele>
        <time>2017-03-03T10:54:13.969Z</time>
      </trkpt>
      <trkpt lat="44.82464" lon="5.04349">
        <ele>384.24</ele>
        <time>2017-03-03T10:54:50.975Z</time>
      </trkpt>
      <trkpt lat="44.8245" lon="5.04324">
        <ele>381.37</ele>
        <time>2017-03-03T10:55:33.015Z</time>
      </trkpt>
      <trkpt lat="44.82433" lon="5.04301">
        <ele>377.91</ele>
        <time>2017-03-03T10:55:51.985Z</time>
      </trkpt>
      <trkpt lat="44.8242" lon="5.04273">
        <ele>372.64</ele>
        <time>2017-03-03T10:56:31.002Z</time>
      </trkpt>
      <trkpt lat="44.82408" lon="5.04246">
        <ele>368.08</ele>
        <time>2017-03-03T10:56:51.973Z</time>
      </trkpt>
      <trkpt lat="44.82387" lon="5.04232">
        <ele>367.93</ele>
        <time>2017-03-03T10:57:12.012Z</time>
      </trkpt>
      <trkpt lat="44.82375" lon="5.04204">
        <ele>362.78</ele>
        <time>2017-03-03T10:57:48.959Z</time>
      </trkpt>
      <trkpt lat="44.82371" lon="5.04172">
        <ele>354.93</ele>
        <time>2017-03-03T10:58:15.006Z</time>
      </trkpt>
      <trkpt lat="44.82372" lon="5.0414">
        <ele>347.27</ele>
        <time>2017-03-03T10:58:39.017Z</time>
      </trkpt>
      <trkpt lat="44.82368" lon="5.04109">
        <ele>340.4</ele>
        <time>2017-03-03T10:58:55.049Z</time>
      </trkpt>
      <trkpt lat="44.82357" lon="5.04079">
        <ele>335.43</ele>
        <time>2017-03-03T10:59:21.000Z</time>
      </trkpt>
      <trkpt lat="44.82344" lon="5.04053">
        <ele>332.52</ele>
        <time>2017-03-03T10:59:39.941Z</time>
      </trkpt>
      <trkpt lat="44.82334" lon="5.04022">
        <ele>329.89</ele>
        <time>2017-03-03T11:00:01.954Z</time>
      </trkpt>
      <trkpt lat="44.82325" lon="5.03991">
        <ele>327.69</ele>
        <time>2017-03-03T11:00:26.996Z</time>
      </trkpt>
      <trkpt lat="44.82317" lon="5.03961">
        <ele>325.83</ele>
        <time>2017-03-03T11:01:09.957Z</time>
      </trkpt>
      <trkpt lat="44.82339" lon="5.03968">
        <ele>324.88</ele>
        <time>2017-03-03T11:01:35.947Z</time>
      </trkpt>
      <trkpt lat="44.82362" lon="5.03967">
        <ele>322.43</ele>
        <time>2017-03-03T11:01:58.986Z</time>
      </trkpt>
      <trkpt lat="44.82364" lon="5.03936">
        <ele>319.8</ele>
        <time>2017-03-03T11:02:21.987Z</time>
      </trkpt>
      <trkpt lat="44.82361" lon="5.03924">
        <ele>319.63</ele>
        <time>2017-03-03T11:07:12.026Z</time>
      </trkpt>
    </trkseg>
  </trk>
</gpx>